sensor_id;sensor_type;location;lat;lon;timestamp;P1;durP1;ratioP1;P2;durP2;ratioP2
67063;SDS011;58476;48.072;11.970;2023-07-16T00:00:51;5.90;;;2.92;;
67063;SDS011;58476;48.072;11.970;2023-07-16T00:03:17;4.57;;;2.90;;
67063;SDS011;58476;48.072;11.970;2023-07-16T00:05:42;16.73;;;3.55;;
67063;SDS011;58476;48.072;11.970;2023-07-16T00:08:07;8.95;;;2.90;;
67063;SDS011;58476;48.072;11.970;2023-07-16T00:10:36;6.20;;;3.00;;
67063;SDS011;58476;48.072;11.970;2023-07-16T00:13:02;6.57;;;2.88;;
67063;SDS011;58476;48.072;11.970;2023-07-16T00:15:28;5.68;;;3.38;;
67063;SDS011;58476;48.072;11.970;2023-07-16T00:17:54;4.97;;;2.80;;
67063;SDS011;58476;48.072;11.970;2023-07-16T00:20:19;4.10;;;2.60;;
67063;SDS011;58476;48.072;11.970;2023-07-16T00:22:45;4.95;;;3.08;;
67063;SDS011;58476;48.072;11.970;2023-07-16T00:25:10;6.10;;;3.03;;
67063;SDS011;58476;48.072;11.970;2023-07-16T00:27:35;4.72;;;3.13;;
67063;SDS011;58476;48.072;11.970;2023-07-16T00:30:01;6.50;;;2.92;;
67063;SDS011;58476;48.072;11.970;2023-07-16T00:32:26;9.90;;;3.33;;
67063;SDS011;58476;48.072;11.970;2023-07-16T00:34:52;8.10;;;3.22;;
67063;SDS011;58476;48.072;11.970;2023-07-16T00:37:18;7.88;;;2.90;;
67063;SDS011;58476;48.072;11.970;2023-07-16T00:39:43;7.95;;;3.30;;
67063;SDS011;58476;48.072;11.970;2023-07-16T00:42:09;8.27;;;3.20;;
67063;SDS011;58476;48.072;11.970;2023-07-16T00:44:34;8.27;;;3.50;;
67063;SDS011;58476;48.072;11.970;2023-07-16T00:47:00;11.15;;;3.28;;
67063;SDS011;58476;48.072;11.970;2023-07-16T00:49:25;9.05;;;2.78;;
67063;SDS011;58476;48.072;11.970;2023-07-16T00:51:52;11.15;;;3.75;;
67063;SDS011;58476;48.072;11.970;2023-07-16T00:54:18;6.82;;;2.63;;
67063;SDS011;58476;48.072;11.970;2023-07-16T00:56:44;7.05;;;3.95;;
67063;SDS011;58476;48.072;11.970;2023-07-16T00:59:10;12.60;;;3.00;;
67063;SDS011;58476;48.072;11.970;2023-07-16T01:01:35;8.80;;;3.25;;
67063;SDS011;58476;48.072;11.970;2023-07-16T01:04:01;5.68;;;2.47;;
67063;SDS011;58476;48.072;11.970;2023-07-16T01:09:06;5.22;;;2.90;;
67063;SDS011;58476;48.072;11.970;2023-07-16T01:11:34;9.30;;;3.05;;
67063;SDS011;58476;48.072;11.970;2023-07-16T01:14:01;8.18;;;3.00;;
67063;SDS011;58476;48.072;11.970;2023-07-16T01:16:27;4.90;;;2.60;;
67063;SDS011;58476;48.072;11.970;2023-07-16T01:18:53;7.75;;;2.80;;
67063;SDS011;58476;48.072;11.970;2023-07-16T01:21:19;8.57;;;3.08;;
67063;SDS011;58476;48.072;11.970;2023-07-16T01:29:28;4.20;;;2.50;;
67063;SDS011;58476;48.072;11.970;2023-07-16T01:31:56;2.92;;;2.40;;
67063;SDS011;58476;48.072;11.970;2023-07-16T01:34:24;6.55;;;2.65;;
67063;SDS011;58476;48.072;11.970;2023-07-16T01:36:51;5.30;;;2.30;;
67063;SDS011;58476;48.072;11.970;2023-07-16T01:39:17;8.95;;;2.83;;
67063;SDS011;58476;48.072;11.970;2023-07-16T01:41:43;7.57;;;2.67;;
67063;SDS011;58476;48.072;11.970;2023-07-16T01:44:08;2.85;;;2.17;;
67063;SDS011;58476;48.072;11.970;2023-07-16T01:46:34;4.07;;;2.40;;
67063;SDS011;58476;48.072;11.970;2023-07-16T01:48:59;6.10;;;2.50;;
67063;SDS011;58476;48.072;11.970;2023-07-16T01:51:25;3.15;;;2.28;;
67063;SDS011;58476;48.072;11.970;2023-07-16T01:53:51;6.28;;;2.50;;
67063;SDS011;58476;48.072;11.970;2023-07-16T01:56:16;2.85;;;2.33;;
67063;SDS011;58476;48.072;11.970;2023-07-16T01:58:42;3.20;;;2.00;;
67063;SDS011;58476;48.072;11.970;2023-07-16T02:01:07;4.40;;;2.40;;
67063;SDS011;58476;48.072;11.970;2023-07-16T02:03:32;5.63;;;2.30;;
67063;SDS011;58476;48.072;11.970;2023-07-16T02:05:58;3.90;;;2.63;;
67063;SDS011;58476;48.072;11.970;2023-07-16T02:08:23;5.20;;;2.60;;
67063;SDS011;58476;48.072;11.970;2023-07-16T02:10:49;7.43;;;2.40;;
67063;SDS011;58476;48.072;11.970;2023-07-16T02:13:14;3.85;;;2.30;;
67063;SDS011;58476;48.072;11.970;2023-07-16T02:15:40;5.18;;;2.42;;
67063;SDS011;58476;48.072;11.970;2023-07-16T02:18:05;3.40;;;2.13;;
67063;SDS011;58476;48.072;11.970;2023-07-16T02:20:33;4.43;;;2.40;;
67063;SDS011;58476;48.072;11.970;2023-07-16T02:22:59;3.72;;;2.85;;
67063;SDS011;58476;48.072;11.970;2023-07-16T02:25:26;4.65;;;2.38;;
67063;SDS011;58476;48.072;11.970;2023-07-16T02:27:51;3.92;;;2.17;;
67063;SDS011;58476;48.072;11.970;2023-07-16T02:30:16;2.58;;;2.28;;
67063;SDS011;58476;48.072;11.970;2023-07-16T02:32:42;3.50;;;2.33;;
67063;SDS011;58476;48.072;11.970;2023-07-16T02:35:08;4.63;;;2.30;;
67063;SDS011;58476;48.072;11.970;2023-07-16T02:37:34;3.15;;;2.30;;
67063;SDS011;58476;48.072;11.970;2023-07-16T02:40:00;3.63;;;2.22;;
67063;SDS011;58476;48.072;11.970;2023-07-16T02:42:25;4.75;;;2.10;;
67063;SDS011;58476;48.072;11.970;2023-07-16T02:44:51;3.95;;;2.28;;
67063;SDS011;58476;48.072;11.970;2023-07-16T02:47:16;3.85;;;2.33;;
67063;SDS011;58476;48.072;11.970;2023-07-16T02:49:41;4.20;;;2.20;;
67063;SDS011;58476;48.072;11.970;2023-07-16T02:52:07;5.05;;;2.30;;
67063;SDS011;58476;48.072;11.970;2023-07-16T02:54:32;3.63;;;2.08;;
67063;SDS011;58476;48.072;11.970;2023-07-16T02:57:00;4.78;;;2.30;;
67063;SDS011;58476;48.072;11.970;2023-07-16T02:59:25;4.35;;;2.20;;
67063;SDS011;58476;48.072;11.970;2023-07-16T03:01:51;2.60;;;2.10;;
67063;SDS011;58476;48.072;11.970;2023-07-16T03:04:16;4.30;;;2.25;;
67063;SDS011;58476;48.072;11.970;2023-07-16T03:06:41;7.60;;;2.55;;
67063;SDS011;58476;48.072;11.970;2023-07-16T03:09:07;4.95;;;2.30;;
67063;SDS011;58476;48.072;11.970;2023-07-16T03:11:32;4.82;;;2.10;;
67063;SDS011;58476;48.072;11.970;2023-07-16T03:13:57;4.00;;;2.20;;
67063;SDS011;58476;48.072;11.970;2023-07-16T03:16:23;5.70;;;2.30;;
67063;SDS011;58476;48.072;11.970;2023-07-16T03:18:48;3.15;;;2.05;;
67063;SDS011;58476;48.072;11.970;2023-07-16T03:21:13;7.43;;;2.50;;
67063;SDS011;58476;48.072;11.970;2023-07-16T03:23:39;5.43;;;2.53;;
67063;SDS011;58476;48.072;11.970;2023-07-16T03:26:04;7.82;;;2.47;;
67063;SDS011;58476;48.072;11.970;2023-07-16T03:28:31;4.35;;;2.40;;
67063;SDS011;58476;48.072;11.970;2023-07-16T03:30:56;5.57;;;2.20;;
67063;SDS011;58476;48.072;11.970;2023-07-16T03:33:21;5.50;;;2.30;;
67063;SDS011;58476;48.072;11.970;2023-07-16T03:35:48;5.85;;;2.63;;
67063;SDS011;58476;48.072;11.970;2023-07-16T03:38:16;3.33;;;2.20;;
67063;SDS011;58476;48.072;11.970;2023-07-16T03:40:42;2.67;;;2.08;;
67063;SDS011;58476;48.072;11.970;2023-07-16T03:43:11;4.57;;;2.40;;
67063;SDS011;58476;48.072;11.970;2023-07-16T03:45:37;4.40;;;2.10;;
67063;SDS011;58476;48.072;11.970;2023-07-16T03:48:02;5.57;;;2.10;;
67063;SDS011;58476;48.072;11.970;2023-07-16T03:50:28;7.22;;;1.92;;
67063;SDS011;58476;48.072;11.970;2023-07-16T03:52:54;4.28;;;2.50;;
67063;SDS011;58476;48.072;11.970;2023-07-16T03:55:20;3.20;;;2.20;;
67063;SDS011;58476;48.072;11.970;2023-07-16T03:57:45;7.20;;;2.45;;
67063;SDS011;58476;48.072;11.970;2023-07-16T04:00:11;10.82;;;2.20;;
67063;SDS011;58476;48.072;11.970;2023-07-16T04:02:39;4.47;;;2.35;;
67063;SDS011;58476;48.072;11.970;2023-07-16T04:05:05;10.45;;;2.53;;
67063;SDS011;58476;48.072;11.970;2023-07-16T04:07:31;11.70;;;2.50;;
67063;SDS011;58476;48.072;11.970;2023-07-16T04:09:57;7.13;;;2.25;;
67063;SDS011;58476;48.072;11.970;2023-07-16T04:12:22;5.97;;;2.20;;
67063;SDS011;58476;48.072;11.970;2023-07-16T04:14:47;5.55;;;2.33;;
67063;SDS011;58476;48.072;11.970;2023-07-16T04:17:13;5.72;;;2.30;;
67063;SDS011;58476;48.072;11.970;2023-07-16T04:19:38;3.40;;;2.25;;
67063;SDS011;58476;48.072;11.970;2023-07-16T04:22:04;7.32;;;2.40;;
67063;SDS011;58476;48.072;11.970;2023-07-16T04:24:29;4.50;;;2.35;;
67063;SDS011;58476;48.072;11.970;2023-07-16T04:26:55;5.72;;;2.20;;
67063;SDS011;58476;48.072;11.970;2023-07-16T04:29:20;5.65;;;2.40;;
67063;SDS011;58476;48.072;11.970;2023-07-16T04:31:46;6.93;;;2.58;;
67063;SDS011;58476;48.072;11.970;2023-07-16T04:34:11;4.95;;;2.20;;
67063;SDS011;58476;48.072;11.970;2023-07-16T04:36:37;6.40;;;2.53;;
67063;SDS011;58476;48.072;11.970;2023-07-16T04:39:03;5.95;;;2.30;;
67063;SDS011;58476;48.072;11.970;2023-07-16T04:41:28;4.28;;;2.72;;
67063;SDS011;58476;48.072;11.970;2023-07-16T04:43:54;5.97;;;2.75;;
67063;SDS011;58476;48.072;11.970;2023-07-16T04:46:19;6.38;;;3.03;;
67063;SDS011;58476;48.072;11.970;2023-07-16T04:48:44;13.98;;;2.75;;
67063;SDS011;58476;48.072;11.970;2023-07-16T04:51:10;5.70;;;2.95;;
67063;SDS011;58476;48.072;11.970;2023-07-16T04:53:35;5.65;;;2.33;;
67063;SDS011;58476;48.072;11.970;2023-07-16T04:56:00;6.38;;;2.72;;
67063;SDS011;58476;48.072;11.970;2023-07-16T04:58:26;6.60;;;2.88;;
67063;SDS011;58476;48.072;11.970;2023-07-16T05:00:51;7.78;;;2.72;;
67063;SDS011;58476;48.072;11.970;2023-07-16T05:03:16;7.70;;;2.90;;
67063;SDS011;58476;48.072;11.970;2023-07-16T05:05:42;7.75;;;2.95;;
67063;SDS011;58476;48.072;11.970;2023-07-16T05:08:07;7.53;;;3.08;;
67063;SDS011;58476;48.072;11.970;2023-07-16T05:10:32;8.02;;;2.80;;
67063;SDS011;58476;48.072;11.970;2023-07-16T05:12:59;7.03;;;2.90;;
67063;SDS011;58476;48.072;11.970;2023-07-16T05:15:25;11.68;;;3.53;;
67063;SDS011;58476;48.072;11.970;2023-07-16T05:17:51;5.88;;;2.60;;
67063;SDS011;58476;48.072;11.970;2023-07-16T05:20:16;11.20;;;2.88;;
67063;SDS011;58476;48.072;11.970;2023-07-16T05:22:42;5.20;;;2.63;;
67063;SDS011;58476;48.072;11.970;2023-07-16T05:25:07;6.18;;;2.83;;
67063;SDS011;58476;48.072;11.970;2023-07-16T05:27:33;10.38;;;3.70;;
67063;SDS011;58476;48.072;11.970;2023-07-16T05:29:58;7.80;;;2.42;;
67063;SDS011;58476;48.072;11.970;2023-07-16T05:32:24;7.55;;;2.72;;
67063;SDS011;58476;48.072;11.970;2023-07-16T05:34:49;6.30;;;2.70;;
67063;SDS011;58476;48.072;11.970;2023-07-16T05:37:14;8.02;;;2.75;;
67063;SDS011;58476;48.072;11.970;2023-07-16T05:39:40;8.75;;;2.70;;
67063;SDS011;58476;48.072;11.970;2023-07-16T05:42:05;5.75;;;2.67;;
67063;SDS011;58476;48.072;11.970;2023-07-16T05:44:30;5.07;;;2.60;;
67063;SDS011;58476;48.072;11.970;2023-07-16T05:46:56;5.63;;;2.53;;
67063;SDS011;58476;48.072;11.970;2023-07-16T05:49:21;12.10;;;3.42;;
67063;SDS011;58476;48.072;11.970;2023-07-16T05:51:47;9.35;;;2.63;;
67063;SDS011;58476;48.072;11.970;2023-07-16T05:54:12;7.95;;;3.25;;
67063;SDS011;58476;48.072;11.970;2023-07-16T05:56:37;8.07;;;2.45;;
67063;SDS011;58476;48.072;11.970;2023-07-16T05:59:03;9.15;;;2.35;;
67063;SDS011;58476;48.072;11.970;2023-07-16T06:01:28;8.20;;;2.42;;
67063;SDS011;58476;48.072;11.970;2023-07-16T06:03:53;7.40;;;2.53;;
67063;SDS011;58476;48.072;11.970;2023-07-16T06:06:19;6.07;;;2.35;;
67063;SDS011;58476;48.072;11.970;2023-07-16T06:08:44;5.35;;;2.28;;
67063;SDS011;58476;48.072;11.970;2023-07-16T06:11:10;5.45;;;2.40;;
67063;SDS011;58476;48.072;11.970;2023-07-16T06:13:35;5.60;;;2.20;;
67063;SDS011;58476;48.072;11.970;2023-07-16T06:16:00;10.95;;;3.38;;
67063;SDS011;58476;48.072;11.970;2023-07-16T06:18:26;9.38;;;2.28;;
67063;SDS011;58476;48.072;11.970;2023-07-16T06:20:51;6.25;;;2.53;;
67063;SDS011;58476;48.072;11.970;2023-07-16T06:23:16;5.95;;;2.67;;
67063;SDS011;58476;48.072;11.970;2023-07-16T06:25:42;7.88;;;2.60;;
67063;SDS011;58476;48.072;11.970;2023-07-16T06:28:07;7.93;;;2.80;;
67063;SDS011;58476;48.072;11.970;2023-07-16T06:30:33;8.48;;;2.55;;
67063;SDS011;58476;48.072;11.970;2023-07-16T06:32:58;4.97;;;2.30;;
67063;SDS011;58476;48.072;11.970;2023-07-16T06:35:24;6.35;;;2.58;;
67063;SDS011;58476;48.072;11.970;2023-07-16T06:37:49;5.80;;;2.35;;
67063;SDS011;58476;48.072;11.970;2023-07-16T06:40:15;7.43;;;2.70;;
67063;SDS011;58476;48.072;11.970;2023-07-16T06:42:40;6.68;;;2.55;;
67063;SDS011;58476;48.072;11.970;2023-07-16T06:45:06;7.72;;;2.47;;
67063;SDS011;58476;48.072;11.970;2023-07-16T06:47:32;7.30;;;2.63;;
67063;SDS011;58476;48.072;11.970;2023-07-16T06:49:57;6.20;;;2.30;;
67063;SDS011;58476;48.072;11.970;2023-07-16T06:52:23;7.13;;;2.70;;
67063;SDS011;58476;48.072;11.970;2023-07-16T06:54:49;9.55;;;2.72;;
67063;SDS011;58476;48.072;11.970;2023-07-16T06:57:14;7.35;;;2.45;;
67063;SDS011;58476;48.072;11.970;2023-07-16T06:59:39;9.43;;;2.65;;
67063;SDS011;58476;48.072;11.970;2023-07-16T07:02:05;5.85;;;2.60;;
67063;SDS011;58476;48.072;11.970;2023-07-16T07:04:30;6.75;;;2.17;;
67063;SDS011;58476;48.072;11.970;2023-07-16T07:06:56;11.45;;;2.33;;
67063;SDS011;58476;48.072;11.970;2023-07-16T07:09:21;6.15;;;2.10;;
67063;SDS011;58476;48.072;11.970;2023-07-16T07:11:46;4.25;;;2.00;;
67063;SDS011;58476;48.072;11.970;2023-07-16T07:14:12;5.68;;;1.90;;
67063;SDS011;58476;48.072;11.970;2023-07-16T07:16:37;8.25;;;2.50;;
67063;SDS011;58476;48.072;11.970;2023-07-16T07:19:02;6.10;;;2.00;;
67063;SDS011;58476;48.072;11.970;2023-07-16T07:21:28;7.22;;;2.10;;
67063;SDS011;58476;48.072;11.970;2023-07-16T07:23:53;6.47;;;2.15;;
67063;SDS011;58476;48.072;11.970;2023-07-16T07:26:19;8.65;;;2.10;;
67063;SDS011;58476;48.072;11.970;2023-07-16T07:28:44;10.50;;;2.30;;
67063;SDS011;58476;48.072;11.970;2023-07-16T07:31:09;5.88;;;2.10;;
67063;SDS011;58476;48.072;11.970;2023-07-16T07:33:35;13.85;;;2.40;;
67063;SDS011;58476;48.072;11.970;2023-07-16T07:36:00;11.38;;;2.33;;
67063;SDS011;58476;48.072;11.970;2023-07-16T07:38:25;6.45;;;2.08;;
67063;SDS011;58476;48.072;11.970;2023-07-16T07:40:51;5.55;;;1.98;;
67063;SDS011;58476;48.072;11.970;2023-07-16T07:43:16;5.93;;;2.00;;
67063;SDS011;58476;48.072;11.970;2023-07-16T07:45:41;5.35;;;2.15;;
67063;SDS011;58476;48.072;11.970;2023-07-16T07:48:07;5.82;;;2.03;;
67063;SDS011;58476;48.072;11.970;2023-07-16T07:50:32;4.20;;;1.90;;
67063;SDS011;58476;48.072;11.970;2023-07-16T07:52:57;4.18;;;1.83;;
67063;SDS011;58476;48.072;11.970;2023-07-16T07:55:23;6.72;;;1.85;;
67063;SDS011;58476;48.072;11.970;2023-07-16T07:57:48;7.50;;;1.98;;
67063;SDS011;58476;48.072;11.970;2023-07-16T08:00:13;4.10;;;1.80;;
67063;SDS011;58476;48.072;11.970;2023-07-16T08:02:40;5.32;;;2.22;;
67063;SDS011;58476;48.072;11.970;2023-07-16T08:05:06;4.30;;;1.77;;
67063;SDS011;58476;48.072;11.970;2023-07-16T08:07:32;5.75;;;2.00;;
67063;SDS011;58476;48.072;11.970;2023-07-16T08:09:57;6.40;;;2.10;;
67063;SDS011;58476;48.072;11.970;2023-07-16T08:12:23;5.50;;;2.05;;
67063;SDS011;58476;48.072;11.970;2023-07-16T08:14:48;4.05;;;1.88;;
67063;SDS011;58476;48.072;11.970;2023-07-16T08:17:13;6.72;;;1.88;;
67063;SDS011;58476;48.072;11.970;2023-07-16T08:19:39;2.33;;;1.80;;
67063;SDS011;58476;48.072;11.970;2023-07-16T08:22:04;3.65;;;1.80;;
67063;SDS011;58476;48.072;11.970;2023-07-16T08:24:30;2.40;;;1.50;;
67063;SDS011;58476;48.072;11.970;2023-07-16T08:26:55;4.18;;;1.90;;
67063;SDS011;58476;48.072;11.970;2023-07-16T08:29:20;3.53;;;2.03;;
67063;SDS011;58476;48.072;11.970;2023-07-16T08:31:46;7.07;;;1.88;;
67063;SDS011;58476;48.072;11.970;2023-07-16T08:34:11;5.03;;;1.73;;
67063;SDS011;58476;48.072;11.970;2023-07-16T08:36:36;6.50;;;2.00;;
67063;SDS011;58476;48.072;11.970;2023-07-16T08:39:02;6.95;;;1.70;;
67063;SDS011;58476;48.072;11.970;2023-07-16T08:41:27;5.13;;;1.60;;
67063;SDS011;58476;48.072;11.970;2023-07-16T08:43:53;4.80;;;1.90;;
67063;SDS011;58476;48.072;11.970;2023-07-16T08:46:19;6.07;;;1.85;;
67063;SDS011;58476;48.072;11.970;2023-07-16T08:48:45;4.35;;;1.40;;
67063;SDS011;58476;48.072;11.970;2023-07-16T08:51:10;4.22;;;1.30;;
67063;SDS011;58476;48.072;11.970;2023-07-16T08:53:39;5.57;;;1.60;;
67063;SDS011;58476;48.072;11.970;2023-07-16T08:56:05;2.35;;;1.60;;
67063;SDS011;58476;48.072;11.970;2023-07-16T08:58:31;4.13;;;1.63;;
67063;SDS011;58476;48.072;11.970;2023-07-16T09:00:56;2.28;;;1.40;;
67063;SDS011;58476;48.072;11.970;2023-07-16T09:03:23;3.10;;;1.60;;
67063;SDS011;58476;48.072;11.970;2023-07-16T09:05:48;2.75;;;1.63;;
67063;SDS011;58476;48.072;11.970;2023-07-16T09:08:14;3.70;;;1.42;;
67063;SDS011;58476;48.072;11.970;2023-07-16T09:10:40;4.60;;;1.70;;
67063;SDS011;58476;48.072;11.970;2023-07-16T09:13:05;4.10;;;1.42;;
67063;SDS011;58476;48.072;11.970;2023-07-16T09:15:31;6.28;;;1.50;;
67063;SDS011;58476;48.072;11.970;2023-07-16T09:17:56;3.30;;;1.40;;
67063;SDS011;58476;48.072;11.970;2023-07-16T09:20:22;3.42;;;1.90;;
67063;SDS011;58476;48.072;11.970;2023-07-16T09:22:47;5.60;;;1.88;;
67063;SDS011;58476;48.072;11.970;2023-07-16T09:25:13;4.90;;;1.70;;
67063;SDS011;58476;48.072;11.970;2023-07-16T09:27:38;3.53;;;1.55;;
67063;SDS011;58476;48.072;11.970;2023-07-16T09:30:04;8.02;;;1.90;;
67063;SDS011;58476;48.072;11.970;2023-07-16T09:32:39;10.25;;;1.55;;
67063;SDS011;58476;48.072;11.970;2023-07-16T09:35:14;8.05;;;1.60;;
67063;SDS011;58476;48.072;11.970;2023-07-16T09:37:41;2.17;;;1.50;;
67063;SDS011;58476;48.072;11.970;2023-07-16T09:40:07;2.17;;;1.40;;
67063;SDS011;58476;48.072;11.970;2023-07-16T09:42:43;7.18;;;1.48;;
67063;SDS011;58476;48.072;11.970;2023-07-16T09:45:16;5.55;;;1.52;;
67063;SDS011;58476;48.072;11.970;2023-07-16T09:47:42;5.82;;;1.60;;
67063;SDS011;58476;48.072;11.970;2023-07-16T09:50:08;6.95;;;1.65;;
67063;SDS011;58476;48.072;11.970;2023-07-16T09:52:34;2.00;;;1.30;;
67063;SDS011;58476;48.072;11.970;2023-07-16T09:55:00;3.58;;;1.48;;
67063;SDS011;58476;48.072;11.970;2023-07-16T09:57:28;8.60;;;1.70;;
67063;SDS011;58476;48.072;11.970;2023-07-16T10:02:25;6.72;;;2.08;;
67063;SDS011;58476;48.072;11.970;2023-07-16T10:04:51;4.32;;;1.95;;
67063;SDS011;58476;48.072;11.970;2023-07-16T10:07:23;5.03;;;1.60;;
67063;SDS011;58476;48.072;11.970;2023-07-16T10:09:56;8.00;;;1.52;;
67063;SDS011;58476;48.072;11.970;2023-07-16T10:12:22;2.28;;;2.03;;
67063;SDS011;58476;48.072;11.970;2023-07-16T10:14:50;7.72;;;1.33;;
67063;SDS011;58476;48.072;11.970;2023-07-16T10:17:20;9.23;;;1.70;;
67063;SDS011;58476;48.072;11.970;2023-07-16T10:19:48;2.17;;;1.20;;
67063;SDS011;58476;48.072;11.970;2023-07-16T10:22:14;8.32;;;1.80;;
67063;SDS011;58476;48.072;11.970;2023-07-16T10:24:40;3.85;;;1.60;;
67063;SDS011;58476;48.072;11.970;2023-07-16T10:27:05;2.40;;;1.52;;
67063;SDS011;58476;48.072;11.970;2023-07-16T10:29:31;3.00;;;1.50;;
67063;SDS011;58476;48.072;11.970;2023-07-16T10:31:58;4.68;;;1.30;;
67063;SDS011;58476;48.072;11.970;2023-07-16T10:34:23;5.88;;;1.70;;
67063;SDS011;58476;48.072;11.970;2023-07-16T10:36:50;6.03;;;1.40;;
67063;SDS011;58476;48.072;11.970;2023-07-16T10:39:15;5.32;;;1.30;;
67063;SDS011;58476;48.072;11.970;2023-07-16T10:41:40;6.13;;;1.30;;
67063;SDS011;58476;48.072;11.970;2023-07-16T10:44:10;5.93;;;1.60;;
67063;SDS011;58476;48.072;11.970;2023-07-16T10:46:38;14.43;;;1.70;;
67063;SDS011;58476;48.072;11.970;2023-07-16T10:49:07;9.15;;;1.73;;
67063;SDS011;58476;48.072;11.970;2023-07-16T10:51:32;8.88;;;1.70;;
67063;SDS011;58476;48.072;11.970;2023-07-16T10:53:57;6.97;;;1.75;;
67063;SDS011;58476;48.072;11.970;2023-07-16T10:56:23;12.35;;;1.90;;
67063;SDS011;58476;48.072;11.970;2023-07-16T10:58:49;9.43;;;1.65;;
67063;SDS011;58476;48.072;11.970;2023-07-16T11:01:14;6.50;;;1.48;;
67063;SDS011;58476;48.072;11.970;2023-07-16T11:03:40;9.50;;;1.73;;
67063;SDS011;58476;48.072;11.970;2023-07-16T11:06:09;16.65;;;1.70;;
67063;SDS011;58476;48.072;11.970;2023-07-16T11:08:34;6.63;;;1.30;;
67063;SDS011;58476;48.072;11.970;2023-07-16T11:11:00;5.30;;;1.35;;
67063;SDS011;58476;48.072;11.970;2023-07-16T11:13:28;2.42;;;1.40;;
67063;SDS011;58476;48.072;11.970;2023-07-16T11:15:54;4.68;;;1.40;;
67063;SDS011;58476;48.072;11.970;2023-07-16T11:18:23;7.15;;;1.80;;
67063;SDS011;58476;48.072;11.970;2023-07-16T11:20:52;7.35;;;1.70;;
67063;SDS011;58476;48.072;11.970;2023-07-16T11:23:18;4.18;;;1.40;;
67063;SDS011;58476;48.072;11.970;2023-07-16T11:25:47;3.30;;;1.30;;
67063;SDS011;58476;48.072;11.970;2023-07-16T11:28:13;3.20;;;1.38;;
67063;SDS011;58476;48.072;11.970;2023-07-16T11:30:38;7.78;;;1.50;;
67063;SDS011;58476;48.072;11.970;2023-07-16T11:33:09;4.28;;;1.30;;
67063;SDS011;58476;48.072;11.970;2023-07-16T11:35:37;5.50;;;1.30;;
67063;SDS011;58476;48.072;11.970;2023-07-16T11:38:06;3.17;;;1.42;;
67063;SDS011;58476;48.072;11.970;2023-07-16T11:40:33;6.45;;;1.40;;
67063;SDS011;58476;48.072;11.970;2023-07-16T11:43:07;5.25;;;1.30;;
67063;SDS011;58476;48.072;11.970;2023-07-16T11:45:34;2.22;;;1.30;;
67063;SDS011;58476;48.072;11.970;2023-07-16T11:48:00;7.78;;;1.25;;
67063;SDS011;58476;48.072;11.970;2023-07-16T11:50:25;4.60;;;1.20;;
67063;SDS011;58476;48.072;11.970;2023-07-16T11:52:51;4.03;;;1.40;;
67063;SDS011;58476;48.072;11.970;2023-07-16T11:55:18;2.15;;;1.20;;
67063;SDS011;58476;48.072;11.970;2023-07-16T11:57:43;2.97;;;1.30;;
67063;SDS011;58476;48.072;11.970;2023-07-16T12:00:09;4.00;;;1.35;;
67063;SDS011;58476;48.072;11.970;2023-07-16T12:02:34;6.07;;;1.40;;
67063;SDS011;58476;48.072;11.970;2023-07-16T12:05:00;4.72;;;1.25;;
67063;SDS011;58476;48.072;11.970;2023-07-16T12:07:32;2.40;;;1.05;;
67063;SDS011;58476;48.072;11.970;2023-07-16T12:09:58;7.85;;;1.77;;
67063;SDS011;58476;48.072;11.970;2023-07-16T12:12:24;9.48;;;1.23;;
67063;SDS011;58476;48.072;11.970;2023-07-16T12:14:49;4.45;;;1.50;;
67063;SDS011;58476;48.072;11.970;2023-07-16T12:17:15;3.92;;;1.17;;
67063;SDS011;58476;48.072;11.970;2023-07-16T12:19:40;3.75;;;1.33;;
67063;SDS011;58476;48.072;11.970;2023-07-16T12:22:05;3.33;;;1.10;;
67063;SDS011;58476;48.072;11.970;2023-07-16T12:24:31;4.38;;;1.40;;
67063;SDS011;58476;48.072;11.970;2023-07-16T12:26:56;2.90;;;1.30;;
67063;SDS011;58476;48.072;11.970;2023-07-16T12:29:22;2.42;;;1.20;;
67063;SDS011;58476;48.072;11.970;2023-07-16T12:31:47;4.75;;;1.25;;
67063;SDS011;58476;48.072;11.970;2023-07-16T12:34:12;3.72;;;1.27;;
67063;SDS011;58476;48.072;11.970;2023-07-16T12:36:38;2.92;;;1.13;;
67063;SDS011;58476;48.072;11.970;2023-07-16T12:39:03;1.48;;;1.20;;
67063;SDS011;58476;48.072;11.970;2023-07-16T12:41:28;3.10;;;1.20;;
67063;SDS011;58476;48.072;11.970;2023-07-16T12:43:54;4.22;;;1.33;;
67063;SDS011;58476;48.072;11.970;2023-07-16T12:46:19;3.42;;;1.27;;
67063;SDS011;58476;48.072;11.970;2023-07-16T12:48:44;10.63;;;1.70;;
67063;SDS011;58476;48.072;11.970;2023-07-16T12:51:10;4.80;;;1.50;;
67063;SDS011;58476;48.072;11.970;2023-07-16T12:53:35;4.47;;;1.77;;
67063;SDS011;58476;48.072;11.970;2023-07-16T12:56:00;3.17;;;1.20;;
67063;SDS011;58476;48.072;11.970;2023-07-16T12:58:25;5.70;;;1.50;;
67063;SDS011;58476;48.072;11.970;2023-07-16T13:00:51;9.88;;;1.98;;
67063;SDS011;58476;48.072;11.970;2023-07-16T13:03:16;4.05;;;1.55;;
67063;SDS011;58476;48.072;11.970;2023-07-16T13:05:42;4.38;;;1.15;;
67063;SDS011;58476;48.072;11.970;2023-07-16T13:08:09;6.97;;;1.63;;
67063;SDS011;58476;48.072;11.970;2023-07-16T13:10:34;12.88;;;1.70;;
67063;SDS011;58476;48.072;11.970;2023-07-16T13:13:00;3.95;;;1.42;;
67063;SDS011;58476;48.072;11.970;2023-07-16T13:15:25;2.97;;;1.70;;
67063;SDS011;58476;48.072;11.970;2023-07-16T13:17:51;2.72;;;1.20;;
67063;SDS011;58476;48.072;11.970;2023-07-16T13:20:17;10.75;;;1.60;;
67063;SDS011;58476;48.072;11.970;2023-07-16T13:22:42;13.88;;;1.48;;
67063;SDS011;58476;48.072;11.970;2023-07-16T13:25:08;10.52;;;1.80;;
67063;SDS011;58476;48.072;11.970;2023-07-16T13:27:33;5.22;;;1.40;;
67063;SDS011;58476;48.072;11.970;2023-07-16T13:29:59;10.38;;;1.63;;
67063;SDS011;58476;48.072;11.970;2023-07-16T13:32:24;6.32;;;1.52;;
67063;SDS011;58476;48.072;11.970;2023-07-16T13:34:50;9.77;;;1.40;;
67063;SDS011;58476;48.072;11.970;2023-07-16T13:37:15;7.30;;;1.60;;
67063;SDS011;58476;48.072;11.970;2023-07-16T13:39:41;4.55;;;1.58;;
67063;SDS011;58476;48.072;11.970;2023-07-16T13:42:06;7.20;;;1.40;;
67063;SDS011;58476;48.072;11.970;2023-07-16T13:44:34;8.77;;;1.92;;
67063;SDS011;58476;48.072;11.970;2023-07-16T13:46:59;8.68;;;2.00;;
67063;SDS011;58476;48.072;11.970;2023-07-16T13:49:25;7.38;;;1.65;;
67063;SDS011;58476;48.072;11.970;2023-07-16T13:51:50;6.80;;;1.30;;
67063;SDS011;58476;48.072;11.970;2023-07-16T13:54:16;10.82;;;1.58;;
67063;SDS011;58476;48.072;11.970;2023-07-16T13:56:41;5.10;;;1.98;;
67063;SDS011;58476;48.072;11.970;2023-07-16T13:59:06;4.13;;;1.50;;
67063;SDS011;58476;48.072;11.970;2023-07-16T14:01:32;2.83;;;1.42;;
67063;SDS011;58476;48.072;11.970;2023-07-16T14:03:57;3.70;;;1.50;;
67063;SDS011;58476;48.072;11.970;2023-07-16T14:06:22;3.83;;;1.70;;
67063;SDS011;58476;48.072;11.970;2023-07-16T14:08:48;4.25;;;1.50;;
67063;SDS011;58476;48.072;11.970;2023-07-16T14:11:13;3.70;;;1.20;;
67063;SDS011;58476;48.072;11.970;2023-07-16T14:13:38;9.02;;;1.92;;
67063;SDS011;58476;48.072;11.970;2023-07-16T14:16:04;4.50;;;1.50;;
67063;SDS011;58476;48.072;11.970;2023-07-16T14:18:30;6.03;;;1.52;;
67063;SDS011;58476;48.072;11.970;2023-07-16T14:20:55;5.82;;;1.70;;
67063;SDS011;58476;48.072;11.970;2023-07-16T14:23:21;6.43;;;1.42;;
67063;SDS011;58476;48.072;11.970;2023-07-16T14:25:46;5.53;;;1.50;;
67063;SDS011;58476;48.072;11.970;2023-07-16T14:28:11;6.80;;;1.33;;
67063;SDS011;58476;48.072;11.970;2023-07-16T14:30:37;4.65;;;1.30;;
67063;SDS011;58476;48.072;11.970;2023-07-16T14:33:02;4.82;;;1.50;;
67063;SDS011;58476;48.072;11.970;2023-07-16T14:35:28;10.60;;;1.70;;